createdAt,value
2023-06-12T00:01:37.607Z,14.35
2023-06-12T00:06:39.565Z,14.27
2023-06-12T00:11:41.689Z,14.21
2023-06-12T00:16:43.349Z,14.22
2023-06-12T00:21:45.191Z,14.16
2023-06-12T00:26:46.755Z,14.16
2023-06-12T00:31:48.350Z,14.08
2023-06-12T00:36:51.321Z,14.05
2023-06-12T00:41:52.997Z,14.03
2023-06-12T00:46:56.550Z,14.03
2023-06-12T00:51:58.418Z,14.15
2023-06-12T00:57:00.044Z,14.31
2023-06-12T01:02:04.404Z,14.58
2023-06-12T01:07:21.664Z,14.91
2023-06-12T01:12:25.882Z,15.39
2023-06-12T01:17:28.753Z,15.81
2023-06-12T01:22:34.160Z,16.16
2023-06-12T01:28:05.501Z,16.49
2023-06-12T01:33:10.971Z,16.78
2023-06-12T01:38:21.765Z,16.75
2023-06-12T01:43:25.391Z,16.28
2023-06-12T01:48:27.961Z,15.79
2023-06-12T01:53:31.057Z,15.41
2023-06-12T01:58:32.723Z,15.00
2023-06-12T02:03:47.041Z,14.85
2023-06-12T02:08:49.298Z,14.73
2023-06-12T02:13:50.914Z,14.66
2023-06-12T02:18:52.676Z,14.55
2023-06-12T02:23:54.689Z,14.41
2023-06-12T02:29:14.048Z,14.28
2023-06-12T02:34:19.777Z,14.33
2023-06-12T02:39:21.442Z,14.42
2023-06-12T02:44:24.112Z,14.43
2023-06-12T02:49:29.539Z,14.51
2023-06-12T02:54:33.209Z,14.48
2023-06-12T02:59:36.712Z,14.54
2023-06-12T03:04:46.100Z,14.62
2023-06-12T03:09:48.562Z,14.64
2023-06-12T03:14:52.090Z,14.52
2023-06-12T03:19:53.812Z,14.51
2023-06-12T03:24:55.406Z,14.42
2023-06-12T03:29:57.420Z,14.37
2023-06-12T03:34:59.910Z,14.38
2023-06-12T03:40:02.311Z,14.28
2023-06-12T03:45:07.147Z,14.35
2023-06-12T03:50:11.373Z,14.20
2023-06-12T03:55:13.264Z,14.15
2023-06-12T04:00:15.828Z,14.25
2023-06-12T04:05:21.936Z,14.24
2023-06-12T04:10:23.958Z,14.55
2023-06-12T04:15:25.571Z,14.96
2023-06-12T04:20:27.731Z,15.46
2023-06-12T04:25:31.494Z,15.90
2023-06-12T04:30:34.437Z,16.29
2023-06-12T04:35:36.949Z,16.50
2023-06-12T04:40:38.630Z,16.66
2023-06-12T04:45:45.417Z,16.94
2023-06-12T04:50:52.299Z,17.09
2023-06-12T04:55:55.327Z,17.20
2023-06-12T05:01:01.419Z,17.34
2023-06-12T05:06:03.971Z,17.43
2023-06-12T05:11:06.153Z,17.72
2023-06-12T05:16:08.997Z,17.96
2023-06-12T05:21:12.081Z,18.03
2023-06-12T05:26:14.511Z,18.12
2023-06-12T05:31:17.684Z,18.40
2023-06-12T05:36:21.089Z,18.70
2023-06-12T05:41:26.701Z,18.96
2023-06-12T05:46:28.822Z,19.27
2023-06-12T05:51:31.194Z,19.40
2023-06-12T05:56:33.218Z,19.57
2023-06-12T06:01:36.678Z,19.63
2023-06-12T06:06:39.692Z,19.89
2023-06-12T06:11:44.650Z,20.09
2023-06-12T06:16:55.069Z,20.42
2023-06-12T06:22:00.527Z,20.66
2023-06-12T06:27:03.880Z,21.07
2023-06-12T06:32:08.705Z,21.40
2023-06-12T06:37:11.505Z,21.54
2023-06-12T06:42:13.594Z,21.89
2023-06-12T06:47:38.285Z,22.18
2023-06-12T06:52:42.404Z,22.41
2023-06-12T06:57:45.938Z,22.89
2023-06-12T07:02:52.501Z,23.16
2023-06-12T07:08:01.836Z,23.32
2023-06-12T07:13:08.636Z,23.43
2023-06-12T07:18:19.893Z,23.65
2023-06-12T07:23:21.598Z,23.98
2023-06-12T07:28:26.085Z,24.29
2023-06-12T07:33:27.701Z,24.45
2023-06-12T07:38:29.593Z,24.38
2023-06-12T07:43:35.353Z,24.42
2023-06-12T07:48:36.989Z,24.31
2023-06-12T07:53:39.671Z,24.23
2023-06-12T07:58:49.192Z,24.33
2023-06-12T08:03:51.693Z,24.43
2023-06-12T08:08:54.825Z,24.38
2023-06-12T08:13:56.769Z,24.48
2023-06-12T08:19:02.550Z,24.65
2023-06-12T08:24:11.649Z,24.70
2023-06-12T08:29:14.070Z,24.73
2023-06-12T08:34:16.984Z,24.96
2023-06-12T08:39:19.035Z,25.12
2023-06-12T08:44:24.835Z,25.09
2023-06-12T08:49:27.828Z,25.40
2023-06-12T08:54:30.306Z,25.33
2023-06-12T08:59:31.919Z,25.36
2023-06-12T09:04:56.240Z,25.18
2023-06-12T09:10:08.625Z,25.43
2023-06-12T09:15:19.988Z,25.58
2023-06-12T09:20:42.478Z,25.44
2023-06-12T09:26:05.354Z,25.40
2023-06-12T09:31:07.734Z,25.46
2023-06-12T09:36:12.625Z,25.71
2023-06-12T09:41:14.400Z,26.02
2023-06-12T09:46:18.141Z,26.11
2023-06-12T09:51:21.319Z,26.29
2023-06-12T09:56:24.868Z,26.44
2023-06-12T10:01:27.849Z,26.47
2023-06-12T10:06:32.336Z,26.56
2023-06-12T10:11:38.070Z,26.33
2023-06-12T10:16:51.204Z,26.28
2023-06-12T10:21:54.743Z,26.09
2023-06-12T10:26:58.088Z,26.07
2023-06-12T10:32:10.682Z,26.29
2023-06-12T10:37:24.758Z,26.62
2023-06-12T10:42:44.680Z,26.95
2023-06-12T10:48:07.688Z,26.83
2023-06-12T10:53:20.303Z,26.55
2023-06-12T10:58:26.671Z,26.49
2023-06-12T11:03:31.009Z,26.50
2023-06-12T11:08:32.923Z,26.65
2023-06-12T11:13:34.624Z,26.75
2023-06-12T11:18:36.430Z,26.82
2023-06-12T11:23:43.807Z,27.05
2023-06-12T11:28:50.568Z,27.01
2023-06-12T11:33:59.740Z,26.77
2023-06-12T11:44:26.701Z,26.98
2023-06-12T11:49:32.362Z,26.94
2023-06-12T12:00:09.923Z,26.90
2023-06-12T12:05:13.172Z,26.83
2023-06-12T12:10:20.197Z,26.83
2023-06-12T12:15:22.399Z,26.96
2023-06-12T12:20:26.531Z,27.05
2023-06-12T12:25:33.625Z,27.01
2023-06-12T12:30:35.395Z,26.89
2023-06-12T12:35:37.072Z,26.95
2023-06-12T12:40:38.671Z,27.25
2023-06-12T12:45:40.293Z,27.22
2023-06-12T12:50:56.626Z,27.36
2023-06-12T12:56:04.180Z,27.45
2023-06-12T13:01:08.088Z,27.53
2023-06-12T13:06:21.052Z,27.58
2023-06-12T13:11:22.627Z,27.41
2023-06-12T13:16:24.241Z,27.29
2023-06-12T13:21:26.014Z,27.36
2023-06-12T13:26:27.735Z,27.49
2023-06-12T13:31:30.213Z,27.47
2023-06-12T13:36:32.670Z,27.48
2023-06-12T13:41:34.285Z,27.41
2023-06-12T13:46:37.597Z,27.47
2023-06-12T13:51:39.506Z,27.51
2023-06-12T13:56:41.193Z,27.49
2023-06-12T14:01:43.459Z,27.58
2023-06-12T14:06:45.112Z,27.53
2023-06-12T14:11:46.693Z,27.57
2023-06-12T14:16:48.857Z,27.79
2023-06-12T14:21:50.503Z,27.87
2023-06-12T14:26:52.062Z,27.63
2023-06-12T14:31:53.839Z,27.54
2023-06-12T14:36:55.664Z,27.76
2023-06-12T14:41:57.265Z,27.87
2023-06-12T14:46:58.970Z,27.93
2023-06-12T14:52:00.621Z,27.80
2023-06-12T14:57:02.335Z,27.72
2023-06-12T15:02:04.085Z,27.64
2023-06-12T15:07:05.768Z,27.70
2023-06-12T15:12:07.852Z,27.60
2023-06-12T15:17:09.531Z,27.60
2023-06-12T15:22:11.183Z,27.59
2023-06-12T15:27:12.743Z,27.58
2023-06-12T15:32:14.270Z,27.65
2023-06-12T15:37:19.365Z,27.62
2023-06-12T15:42:21.199Z,27.61
2023-06-12T15:47:23.038Z,27.59
2023-06-12T15:52:24.718Z,27.52
2023-06-12T15:57:26.358Z,27.39
2023-06-12T16:02:30.684Z,27.25
2023-06-12T16:07:32.447Z,27.13
2023-06-12T16:12:34.003Z,27.17
2023-06-12T16:17:35.615Z,27.14
2023-06-12T16:22:37.279Z,27.08
2023-06-12T16:27:38.955Z,27.00
2023-06-12T16:32:44.072Z,26.95
2023-06-12T16:37:46.116Z,26.86
2023-06-12T16:42:47.758Z,26.84
2023-06-12T16:47:49.392Z,26.82
2023-06-12T16:52:51.012Z,26.70
2023-06-12T16:57:52.713Z,26.64
2023-06-12T17:02:54.509Z,26.64
2023-06-12T17:07:56.161Z,26.60
2023-06-12T17:12:57.734Z,26.56
2023-06-12T17:17:59.340Z,26.50
2023-06-12T17:23:01.984Z,26.44
2023-06-12T17:28:05.020Z,26.35
2023-06-12T17:33:07.856Z,26.30
2023-06-12T17:38:09.538Z,26.27
2023-06-12T17:43:11.148Z,26.18
2023-06-12T17:48:12.826Z,26.11
2023-06-12T17:53:14.554Z,26.02
2023-06-12T17:58:16.127Z,25.87
2023-06-12T18:03:17.799Z,25.76
2023-06-12T18:08:19.533Z,25.67
2023-06-12T18:13:21.085Z,25.55
2023-06-12T18:18:22.988Z,25.42
2023-06-12T18:23:25.432Z,25.34
2023-06-12T18:28:29.681Z,25.18
2023-06-12T18:33:31.241Z,25.08
2023-06-12T18:38:32.944Z,24.92
2023-06-12T18:43:34.551Z,24.74
2023-06-12T18:48:36.379Z,24.62
2023-06-12T18:53:37.945Z,24.39
2023-06-12T18:58:39.737Z,24.10
2023-06-12T19:03:41.350Z,23.86
2023-06-12T19:08:42.980Z,23.67
2023-06-12T19:13:44.699Z,23.53
2023-06-12T19:18:46.431Z,23.31
2023-06-12T19:23:48.738Z,23.09
2023-06-12T19:28:52.783Z,22.81
2023-06-12T19:33:55.061Z,22.62
2023-06-12T19:38:56.743Z,22.38
2023-06-12T19:43:58.285Z,22.08
2023-06-12T19:48:59.846Z,21.93
2023-06-12T19:54:01.389Z,21.77
2023-06-12T19:59:03.363Z,21.48
2023-06-12T20:04:04.961Z,21.21
2023-06-12T20:09:06.587Z,21.07
2023-06-12T20:14:08.167Z,20.98
2023-06-12T20:19:09.720Z,20.89
2023-06-12T20:24:11.513Z,20.73
2023-06-12T20:29:13.190Z,20.59
2023-06-12T20:34:14.902Z,20.44
2023-06-12T20:39:16.483Z,20.30
2023-06-12T20:44:18.052Z,20.10
2023-06-12T20:49:19.808Z,19.98
2023-06-12T20:54:21.352Z,19.88
2023-06-12T20:59:22.906Z,19.84
2023-06-12T21:04:24.481Z,19.78
2023-06-12T21:09:30.664Z,19.65
2023-06-12T21:14:32.357Z,19.57
2023-06-12T21:19:38.462Z,19.60
2023-06-12T21:24:40.015Z,19.44
2023-06-12T21:29:41.649Z,19.22
2023-06-12T21:34:43.203Z,19.12
2023-06-12T21:39:44.890Z,18.88
2023-06-12T21:44:46.441Z,18.46
2023-06-12T21:49:48.085Z,17.99
2023-06-12T21:54:49.712Z,17.63
2023-06-12T21:59:51.312Z,17.18
2023-06-12T22:04:53.033Z,16.96
2023-06-12T22:09:54.958Z,17.02
2023-06-12T22:14:56.780Z,17.60
2023-06-12T22:19:58.570Z,17.52
2023-06-12T22:25:00.195Z,17.42
2023-06-12T22:30:01.784Z,17.52
2023-06-12T22:35:03.750Z,17.67
2023-06-12T22:40:08.636Z,18.00
2023-06-12T22:45:11.796Z,18.34
2023-06-12T22:50:13.645Z,18.42
2023-06-12T22:55:15.688Z,18.37
2023-06-12T23:00:17.878Z,18.33
2023-06-12T23:05:19.792Z,18.36
2023-06-12T23:10:21.688Z,18.31
2023-06-12T23:15:23.294Z,18.25
2023-06-12T23:20:27.787Z,18.12
2023-06-12T23:25:29.958Z,18.16
2023-06-12T23:30:31.556Z,18.19
2023-06-12T23:35:33.152Z,18.20
2023-06-12T23:40:34.959Z,18.25
2023-06-12T23:45:36.539Z,18.14
2023-06-12T23:50:38.450Z,18.09
2023-06-12T23:55:40.013Z,18.08
